createdAt,value
2019-02-23T00:00:19.593Z,4.27
2019-02-23T00:02:48.371Z,4.80
2019-02-23T00:05:17.102Z,4.23
2019-02-23T00:07:45.826Z,3.57
2019-02-23T00:10:14.706Z,3.57
2019-02-23T00:12:43.428Z,3.77
2019-02-23T00:15:12.159Z,3.20
2019-02-23T00:17:41.179Z,3.20
2019-02-23T00:20:10.109Z,3.57
2019-02-23T00:22:40.120Z,3.27
2019-02-23T00:25:09.025Z,2.93
2019-02-23T00:27:37.763Z,2.50
2019-02-23T00:30:09.724Z,2.90
2019-02-23T00:32:38.625Z,3.27
2019-02-23T00:35:07.358Z,3.33
2019-02-23T00:37:36.079Z,3.63
2019-02-23T00:40:05.877Z,3.77
2019-02-23T00:42:34.622Z,3.23
2019-02-23T00:45:03.353Z,3.93
2019-02-23T00:47:33.298Z,3.57
2019-02-23T00:50:02.020Z,4.37
2019-02-23T00:52:30.748Z,4.20
2019-02-23T00:54:59.648Z,4.60
2019-02-23T00:57:28.380Z,5.10
2019-02-23T00:59:57.112Z,4.77
2019-02-23T01:02:25.888Z,5.00
2019-02-23T01:04:54.613Z,1.60
2019-02-23T01:07:23.433Z,1.57
2019-02-23T01:09:52.290Z,1.40
2019-02-23T01:12:21.030Z,1.53
2019-02-23T01:14:49.763Z,1.53
2019-02-23T01:17:18.534Z,1.67
2019-02-23T01:19:48.183Z,2.30
2019-02-23T01:22:17.081Z,1.37
2019-02-23T01:24:45.859Z,2.20
2019-02-23T01:27:14.598Z,2.10
2019-02-23T01:29:43.368Z,1.93
2019-02-23T01:32:12.169Z,2.03
2019-02-23T01:34:40.900Z,2.60
2019-02-23T01:37:09.632Z,1.97
2019-02-23T01:39:38.436Z,2.33
2019-02-23T01:42:07.370Z,2.30
2019-02-23T01:44:36.101Z,2.40
2019-02-23T01:47:05.202Z,2.33
2019-02-23T01:49:34.242Z,2.20
2019-02-23T01:52:02.980Z,2.50
2019-02-23T01:54:32.162Z,7.83
2019-02-23T01:57:00.902Z,4.07
2019-02-23T01:59:29.619Z,2.80
2019-02-23T02:01:59.019Z,3.73
2019-02-23T02:04:27.927Z,4.77
2019-02-23T02:06:56.658Z,5.67
2019-02-23T02:09:25.985Z,3.57
2019-02-23T02:11:54.907Z,2.37
2019-02-23T02:14:23.629Z,2.00
2019-02-23T02:16:52.421Z,2.50
2019-02-23T02:19:21.142Z,2.20
2019-02-23T02:21:50.071Z,1.90
2019-02-23T02:24:18.956Z,2.13
2019-02-23T02:26:47.683Z,2.53
2019-02-23T02:29:16.403Z,2.30
2019-02-23T02:31:45.168Z,2.27
2019-02-23T02:34:15.485Z,2.50
2019-02-23T02:36:44.210Z,2.07
2019-02-23T02:39:14.086Z,2.53
2019-02-23T02:41:42.814Z,2.27
2019-02-23T02:44:11.574Z,3.70
2019-02-23T02:46:40.319Z,2.53
2019-02-23T02:49:09.146Z,3.60
2019-02-23T02:51:37.874Z,2.53
2019-02-23T02:54:06.646Z,3.50
2019-02-23T02:56:35.377Z,2.83
2019-02-23T02:59:04.107Z,2.30
2019-02-23T03:01:32.906Z,2.30
2019-02-23T03:04:01.626Z,2.07
2019-02-23T03:06:30.361Z,2.10
2019-02-23T03:08:59.165Z,1.47
2019-02-23T03:11:27.905Z,2.00
2019-02-23T03:13:56.623Z,1.93
2019-02-23T03:16:25.510Z,2.50
2019-02-23T03:18:54.230Z,2.07
2019-02-23T03:21:22.960Z,2.17
2019-02-23T03:23:51.869Z,2.60
2019-02-23T03:26:20.591Z,2.67
2019-02-23T03:28:49.309Z,3.50
2019-02-23T03:31:18.266Z,10.00
2019-02-23T03:33:46.994Z,3.40
2019-02-23T03:36:15.711Z,2.80
2019-02-23T03:38:44.916Z,2.80
2019-02-23T03:41:13.647Z,2.77
2019-02-23T03:43:42.372Z,4.47
2019-02-23T03:46:11.161Z,22.60
2019-02-23T03:48:39.903Z,49.20
2019-02-23T03:51:08.646Z,57.13
2019-02-23T03:53:37.580Z,37.23
2019-02-23T03:56:06.410Z,24.90
2019-02-23T03:58:35.145Z,5.43
2019-02-23T04:01:03.923Z,4.20
2019-02-23T04:03:32.635Z,5.13
2019-02-23T04:06:01.373Z,14.37
2019-02-23T04:08:30.204Z,8.70
2019-02-23T04:10:58.929Z,4.13
2019-02-23T04:13:27.653Z,2.90
2019-02-23T04:15:56.937Z,2.07
2019-02-23T04:18:25.662Z,1.77
2019-02-23T04:21:01.791Z,2.10
2019-02-23T04:23:24.923Z,2.20
2019-02-23T04:25:53.646Z,1.80
2019-02-23T04:28:22.369Z,2.03
2019-02-23T04:30:51.417Z,2.40
2019-02-23T04:33:20.198Z,2.10
2019-02-23T04:35:48.912Z,2.13
2019-02-23T04:38:17.785Z,2.37
2019-02-23T04:40:46.518Z,2.20
2019-02-23T04:43:15.250Z,4.20
2019-02-23T04:45:44.022Z,3.37
2019-02-23T04:48:12.744Z,3.00
2019-02-23T04:50:41.478Z,11.17
2019-02-23T04:53:10.436Z,13.83
2019-02-23T04:55:39.181Z,18.27
2019-02-23T04:58:07.916Z,10.30
2019-02-23T05:00:36.803Z,13.57
2019-02-23T05:03:05.547Z,105.63
2019-02-23T05:05:34.276Z,21.63
2019-02-23T05:08:04.368Z,11.27
2019-02-23T05:10:33.112Z,15.67
2019-02-23T05:13:01.830Z,5.43
2019-02-23T05:15:31.140Z,4.90
2019-02-23T05:17:59.954Z,4.27
2019-02-23T05:20:28.679Z,5.70
2019-02-23T05:22:57.562Z,3.13
2019-02-23T05:25:26.284Z,3.40
2019-02-23T05:27:55.017Z,11.33
2019-02-23T05:30:23.929Z,5.37
2019-02-23T05:32:52.663Z,10.90
2019-02-23T05:35:21.459Z,11.57
2019-02-23T05:37:50.326Z,3.80
2019-02-23T05:40:19.052Z,2.97
2019-02-23T05:42:47.778Z,8.60
2019-02-23T05:45:16.805Z,3.50
2019-02-23T05:47:45.545Z,2.80
2019-02-23T05:50:14.257Z,2.50
2019-02-23T05:52:43.022Z,3.33
2019-02-23T05:55:11.848Z,3.37
2019-02-23T05:57:40.577Z,2.60
2019-02-23T06:00:12.664Z,3.00
2019-02-23T06:02:41.395Z,2.97
2019-02-23T06:05:10.110Z,3.17
2019-02-23T06:07:38.920Z,2.97
2019-02-23T06:10:09.644Z,2.20
2019-02-23T06:12:38.366Z,2.43
2019-02-23T06:15:10.293Z,2.63
2019-02-23T06:17:39.022Z,2.40
2019-02-23T06:20:09.048Z,2.60
2019-02-23T06:22:38.261Z,2.47
2019-02-23T06:25:08.184Z,2.80
2019-02-23T06:27:36.918Z,2.67
2019-02-23T06:30:09.225Z,3.40
2019-02-23T06:32:37.956Z,3.50
2019-02-23T06:35:08.886Z,3.40
2019-02-23T06:37:37.868Z,2.83
2019-02-23T06:40:09.202Z,2.50
2019-02-23T06:42:37.993Z,2.23
2019-02-23T06:45:10.056Z,2.53
2019-02-23T06:47:38.782Z,2.60
2019-02-23T06:50:08.204Z,2.57
2019-02-23T06:52:37.101Z,2.13
2019-02-23T06:55:07.021Z,2.00
2019-02-23T06:57:35.819Z,2.50
2019-02-23T07:00:09.556Z,2.27
2019-02-23T07:02:38.299Z,2.50
2019-02-23T07:05:07.043Z,2.43
2019-02-23T07:07:35.807Z,1.90
2019-02-23T07:10:06.278Z,1.90
2019-02-23T07:12:35.033Z,2.20
2019-02-23T07:15:04.409Z,2.03
2019-02-23T07:17:33.131Z,2.30
2019-02-23T07:20:03.160Z,1.97
2019-02-23T07:22:33.749Z,1.97
2019-02-23T07:25:02.379Z,2.30
2019-02-23T07:27:31.119Z,2.43
2019-02-23T07:30:00.402Z,2.30
2019-02-23T07:32:29.142Z,2.30
2019-02-23T07:34:57.887Z,2.27
2019-02-23T07:37:26.660Z,4.90
2019-02-23T07:39:55.386Z,5.03
2019-02-23T07:42:24.118Z,3.03
2019-02-23T07:44:52.887Z,14.10
2019-02-23T07:47:21.622Z,4.40
2019-02-23T07:49:50.368Z,4.00
2019-02-23T07:52:26.289Z,6.50
2019-02-23T07:54:52.442Z,3.03
2019-02-23T07:57:21.166Z,3.30
2019-02-23T07:59:50.208Z,3.83
2019-02-23T08:02:18.934Z,2.67
2019-02-23T08:04:47.653Z,2.43
2019-02-23T08:07:16.436Z,2.30
2019-02-23T08:09:45.156Z,2.60
2019-02-23T08:12:13.874Z,4.17
2019-02-23T08:14:42.777Z,4.40
2019-02-23T08:17:11.520Z,2.77
2019-02-23T08:19:41.355Z,2.63
2019-02-23T08:22:10.113Z,2.50
2019-02-23T08:24:38.852Z,2.40
2019-02-23T08:27:07.241Z,2.53
2019-02-23T08:29:36.122Z,2.37
2019-02-23T08:32:04.854Z,2.43
2019-02-23T08:34:33.595Z,3.13
2019-02-23T08:37:03.349Z,2.20
2019-02-23T08:39:32.110Z,1.80
2019-02-23T08:42:00.836Z,5.30
2019-02-23T08:44:30.341Z,3.07
2019-02-23T08:46:59.057Z,2.40
2019-02-23T08:49:27.788Z,2.40
2019-02-23T08:51:56.560Z,2.53
2019-02-23T08:54:25.291Z,9.60
2019-02-23T08:56:55.387Z,16.07
2019-02-23T08:59:24.408Z,3.00
2019-02-23T09:01:53.120Z,2.40
2019-02-23T09:04:21.833Z,2.00
2019-02-23T09:06:50.726Z,1.97
2019-02-23T09:09:19.458Z,1.90
2019-02-23T09:11:48.187Z,1.97
2019-02-23T09:14:17.057Z,1.80
2019-02-23T09:16:45.777Z,1.60
2019-02-23T09:19:14.495Z,2.03
2019-02-23T09:21:43.617Z,12.03
2019-02-23T09:24:12.333Z,4.23
2019-02-23T09:26:41.056Z,2.43
2019-02-23T09:29:09.824Z,1.90
2019-02-23T09:31:38.553Z,2.20
2019-02-23T09:34:07.282Z,2.00
2019-02-23T09:36:36.067Z,4.47
2019-02-23T09:39:05.580Z,3.07
2019-02-23T09:41:34.453Z,2.70
2019-02-23T09:44:04.421Z,2.27
2019-02-23T09:46:33.135Z,2.20
2019-02-23T09:49:01.863Z,2.97
2019-02-23T09:51:30.673Z,15.23
2019-02-23T09:53:59.392Z,8.53
2019-02-23T09:56:28.111Z,3.10
2019-02-23T09:58:56.894Z,9.40
2019-02-23T10:01:25.605Z,2.30
2019-02-23T10:03:54.327Z,4.63
2019-02-23T10:06:23.113Z,2.50
2019-02-23T10:08:51.831Z,2.47
2019-02-23T10:11:20.553Z,2.50
2019-02-23T10:13:49.819Z,2.17
2019-02-23T10:16:18.531Z,2.77
2019-02-23T10:18:47.253Z,2.37
2019-02-23T10:21:16.090Z,3.83
2019-02-23T10:23:44.818Z,6.83
2019-02-23T10:26:13.540Z,4.10
2019-02-23T10:28:42.308Z,2.77
2019-02-23T10:31:11.025Z,3.17
2019-02-23T10:33:47.409Z,2.17
2019-02-23T10:36:10.361Z,2.37
2019-02-23T10:38:39.073Z,3.33
2019-02-23T10:41:07.798Z,4.17
2019-02-23T10:43:36.606Z,6.67
2019-02-23T10:46:05.336Z,5.03
2019-02-23T10:48:34.054Z,7.67
2019-02-23T10:51:02.920Z,3.93
2019-02-23T10:53:33.005Z,4.27
2019-02-23T10:56:01.936Z,4.30
2019-02-23T10:58:30.703Z,2.80
2019-02-23T11:00:59.423Z,2.40
2019-02-23T11:03:28.135Z,2.50
2019-02-23T11:05:57.276Z,2.30
2019-02-23T11:08:25.991Z,2.37
2019-02-23T11:10:54.731Z,2.33
2019-02-23T11:13:23.581Z,42.40
2019-02-23T11:15:52.314Z,24.47
2019-02-23T11:18:21.061Z,70.93
2019-02-23T11:20:49.858Z,9.67
2019-02-23T11:23:18.580Z,3.13
2019-02-23T11:25:47.295Z,7.50
2019-02-23T11:28:16.109Z,12.93
2019-02-23T11:30:44.839Z,20.13
2019-02-23T11:33:13.576Z,18.97
2019-02-23T11:35:42.377Z,30.47
2019-02-23T11:38:11.113Z,26.13
2019-02-23T11:40:39.852Z,24.63
2019-02-23T11:43:08.626Z,7.73
2019-02-23T11:45:37.399Z,2.50
2019-02-23T11:48:06.126Z,2.40
2019-02-23T11:50:34.913Z,2.27
2019-02-23T11:53:03.658Z,2.40
2019-02-23T11:55:32.392Z,2.20
2019-02-23T11:58:01.201Z,2.40
2019-02-23T12:00:29.964Z,2.60
2019-02-23T12:02:58.685Z,2.50
2019-02-23T12:05:28.041Z,2.70
2019-02-23T12:07:56.797Z,2.50
2019-02-23T12:10:25.614Z,2.60
2019-02-23T12:12:54.697Z,2.53
2019-02-23T12:15:24.287Z,2.57
2019-02-23T12:17:53.007Z,2.50
2019-02-23T12:20:21.887Z,2.70
2019-02-23T12:22:50.610Z,9.80
2019-02-23T12:25:19.337Z,7.40
2019-02-23T12:27:48.228Z,4.47
2019-02-23T12:30:16.943Z,3.57
2019-02-23T12:32:45.719Z,3.23
2019-02-23T12:35:14.503Z,7.07
2019-02-23T12:37:43.241Z,3.97
2019-02-23T12:40:12.364Z,3.47
2019-02-23T12:42:41.237Z,4.80
2019-02-23T12:45:11.999Z,5.33
2019-02-23T12:47:40.880Z,4.30
2019-02-23T12:50:11.732Z,5.27
2019-02-23T12:52:40.469Z,5.20
2019-02-23T12:55:11.094Z,13.57
2019-02-23T12:57:39.895Z,5.60
2019-02-23T13:00:11.544Z,8.20
2019-02-23T13:02:40.332Z,10.83
2019-02-23T13:05:09.247Z,6.70
2019-02-23T13:07:38.577Z,4.53
2019-02-23T13:10:11.447Z,9.13
2019-02-23T13:12:49.134Z,3.87
2019-02-23T13:15:21.131Z,3.73
2019-02-23T13:18:07.937Z,16.50
2019-02-23T13:20:51.606Z,8.90
2019-02-23T13:23:48.197Z,10.00
2019-02-23T13:26:36.061Z,6.00
2019-02-23T13:29:07.792Z,3.27
2019-02-23T13:31:42.471Z,8.67
2019-02-23T13:34:29.226Z,10.43
2019-02-23T13:37:19.100Z,5.03
2019-02-23T13:39:53.542Z,6.63
2019-02-23T13:42:43.179Z,8.50
2019-02-23T13:45:18.220Z,9.90
2019-02-23T13:47:52.723Z,10.83
2019-02-23T13:50:30.551Z,3.90
2019-02-23T13:53:21.724Z,3.50
2019-02-23T13:56:21.549Z,2.90
2019-02-23T13:59:17.546Z,5.40
2019-02-23T14:02:18.209Z,4.67
2019-02-23T14:05:14.098Z,3.23
2019-02-23T14:08:21.733Z,4.17
2019-02-23T14:11:08.414Z,3.17
2019-02-23T14:13:43.295Z,2.67
2019-02-23T14:16:26.808Z,3.00
2019-02-23T14:19:04.617Z,3.23
2019-02-23T14:21:58.997Z,2.70
2019-02-23T14:24:50.226Z,3.17
2019-02-23T14:27:31.503Z,2.43
2019-02-23T14:30:15.520Z,4.60
2019-02-23T14:32:59.105Z,3.30
2019-02-23T14:35:39.562Z,6.20
2019-02-23T14:38:29.289Z,3.97
2019-02-23T14:41:09.670Z,3.53
2019-02-23T14:43:44.246Z,8.93
2019-02-23T14:46:37.135Z,8.13
2019-02-23T14:49:36.328Z,8.77
2019-02-23T14:52:15.561Z,3.23
2019-02-23T14:55:03.431Z,13.97
2019-02-23T14:57:43.731Z,3.07
2019-02-23T15:00:21.384Z,4.70
2019-02-23T15:02:59.310Z,5.23
2019-02-23T15:05:39.853Z,3.50
2019-02-23T15:08:23.283Z,4.03
2019-02-23T15:10:57.462Z,4.87
2019-02-23T15:13:31.929Z,4.67
2019-02-23T15:16:38.441Z,4.53
2019-02-23T15:19:33.463Z,3.00
2019-02-23T15:22:22.974Z,6.83
2019-02-23T15:25:12.923Z,5.30
2019-02-23T15:27:39.547Z,6.43
2019-02-23T15:30:20.226Z,3.70
2019-02-23T15:32:54.845Z,3.17
2019-02-23T15:35:26.621Z,3.23
2019-02-23T15:38:14.762Z,13.60
2019-02-23T15:40:58.583Z,9.90
2019-02-23T15:43:45.369Z,3.60
2019-02-23T15:46:29.561Z,9.97
2019-02-23T15:49:30.571Z,6.13
2019-02-23T15:52:00.353Z,9.47
2019-02-23T15:54:29.355Z,8.13
2019-02-23T15:56:58.259Z,9.50
2019-02-23T15:59:27.632Z,11.47
2019-02-23T16:01:57.169Z,15.67
2019-02-23T16:04:25.902Z,15.20
2019-02-23T16:06:54.787Z,17.53
2019-02-23T16:09:23.559Z,14.57
2019-02-23T16:11:52.248Z,10.20
2019-02-23T16:14:21.043Z,14.90
2019-02-23T16:16:49.846Z,9.00
2019-02-23T16:19:18.592Z,16.67
2019-02-23T16:21:47.431Z,11.93
2019-02-23T16:24:16.168Z,7.27
2019-02-23T16:26:44.906Z,11.73
2019-02-23T16:29:13.895Z,13.47
2019-02-23T16:31:42.773Z,5.90
2019-02-23T16:34:11.514Z,3.97
2019-02-23T16:36:40.304Z,3.10
2019-02-23T16:39:10.435Z,3.13
2019-02-23T16:41:39.233Z,18.90
2019-02-23T16:44:08.116Z,17.70
2019-02-23T16:46:36.848Z,24.70
2019-02-23T16:49:05.668Z,27.90
2019-02-23T16:51:34.455Z,25.50
2019-02-23T16:54:03.297Z,11.13
2019-02-23T16:56:31.988Z,9.00
2019-02-23T16:59:00.843Z,13.20
2019-02-23T17:01:29.589Z,31.33
2019-02-23T17:03:58.310Z,20.80
2019-02-23T17:06:27.323Z,32.97
2019-02-23T17:08:56.056Z,35.20
2019-02-23T17:11:24.810Z,56.67
2019-02-23T17:13:53.763Z,39.67
2019-02-23T17:16:22.509Z,43.17
2019-02-23T17:18:51.236Z,19.97
2019-02-23T17:21:20.118Z,4.50
2019-02-23T17:23:48.840Z,9.53
2019-02-23T17:26:17.586Z,42.73
2019-02-23T17:28:46.374Z,13.73
2019-02-23T17:31:15.110Z,23.50
2019-02-23T17:33:43.848Z,31.77
2019-02-23T17:36:13.052Z,36.87
2019-02-23T17:38:44.728Z,20.03
2019-02-23T17:41:12.259Z,9.67
2019-02-23T17:43:41.260Z,6.73
2019-02-23T17:46:09.992Z,5.57
2019-02-23T17:48:38.719Z,16.93
2019-02-23T17:51:07.504Z,16.63
2019-02-23T17:53:36.236Z,16.63
2019-02-23T17:56:12.075Z,12.10
2019-02-23T17:58:35.537Z,4.50
2019-02-23T18:01:04.266Z,3.10
2019-02-23T18:03:32.994Z,2.83
2019-02-23T18:06:01.900Z,2.17
2019-02-23T18:08:30.603Z,2.50
2019-02-23T18:11:00.510Z,2.43
2019-02-23T18:13:29.870Z,2.97
2019-02-23T18:15:58.598Z,3.60
2019-02-23T18:18:27.341Z,4.97
2019-02-23T18:20:56.138Z,3.87
2019-02-23T18:23:24.865Z,5.60
2019-02-23T18:25:53.596Z,3.37
2019-02-23T18:28:22.398Z,2.50
2019-02-23T18:30:51.126Z,2.50
2019-02-23T18:33:24.474Z,2.90
2019-02-23T18:35:53.297Z,4.47
2019-02-23T18:38:22.183Z,3.70
2019-02-23T18:40:50.916Z,2.53
2019-02-23T18:43:19.810Z,4.60
2019-02-23T18:45:48.535Z,3.10
2019-02-23T18:48:17.258Z,2.27
2019-02-23T18:50:47.707Z,2.60
2019-02-23T18:53:16.438Z,2.70
2019-02-23T18:55:45.164Z,2.80
2019-02-23T18:58:14.059Z,3.23
2019-02-23T19:00:42.834Z,3.03
2019-02-23T19:03:11.522Z,3.20
2019-02-23T19:05:40.544Z,3.37
2019-02-23T19:08:09.272Z,3.60
2019-02-23T19:10:38.002Z,2.80
2019-02-23T19:13:08.472Z,4.50
2019-02-23T19:15:37.372Z,3.27
2019-02-23T19:18:06.094Z,3.70
2019-02-23T19:20:34.952Z,4.83
2019-02-23T19:23:03.690Z,6.80
2019-02-23T19:25:32.421Z,14.97
2019-02-23T19:28:01.227Z,15.37
2019-02-23T19:30:29.965Z,17.17
2019-02-23T19:33:01.642Z,34.77
2019-02-23T19:35:30.808Z,55.73
2019-02-23T19:37:59.546Z,29.80
2019-02-23T19:40:29.719Z,22.17
2019-02-23T19:42:58.804Z,14.53
2019-02-23T19:45:27.529Z,7.33
2019-02-23T19:47:56.262Z,7.87
2019-02-23T19:50:31.391Z,16.43
2019-02-23T19:53:00.167Z,23.17
2019-02-23T19:55:28.926Z,15.07
2019-02-23T19:57:57.821Z,13.00
2019-02-23T20:00:26.619Z,8.00
2019-02-23T20:02:58.177Z,4.57
2019-02-23T20:05:27.247Z,4.70
2019-02-23T20:07:56.078Z,4.30
2019-02-23T20:10:24.817Z,4.40
2019-02-23T20:12:53.625Z,4.13
2019-02-23T20:15:26.418Z,3.73
2019-02-23T20:17:58.130Z,4.27
2019-02-23T20:20:28.606Z,4.83
2019-02-23T20:22:57.359Z,5.20
2019-02-23T20:25:26.072Z,4.73
2019-02-23T20:27:54.949Z,7.13
2019-02-23T20:30:23.678Z,4.90
2019-02-23T20:32:52.489Z,4.63
2019-02-23T20:35:21.677Z,4.73
2019-02-23T20:37:50.405Z,4.50
2019-02-23T20:40:19.226Z,4.07
2019-02-23T20:42:48.439Z,4.13
2019-02-23T20:45:17.175Z,5.33
2019-02-23T20:47:45.988Z,5.90
2019-02-23T20:50:14.800Z,11.97
2019-02-23T20:52:43.543Z,12.80
2019-02-23T20:55:12.280Z,8.47
2019-02-23T20:57:42.731Z,7.50
2019-02-23T21:00:12.365Z,6.27
2019-02-23T21:02:41.229Z,6.27
2019-02-23T21:05:15.526Z,6.83
2019-02-23T21:07:44.285Z,7.30
2019-02-23T21:10:13.022Z,7.60
2019-02-23T21:12:43.351Z,7.77
2019-02-23T21:15:12.475Z,7.30
2019-02-23T21:17:41.219Z,8.03
2019-02-23T21:20:12.111Z,9.73
2019-02-23T21:22:42.459Z,13.80
2019-02-23T21:25:14.172Z,14.33
2019-02-23T21:27:43.457Z,15.57
2019-02-23T21:30:12.211Z,11.47
2019-02-23T21:32:40.935Z,10.90
2019-02-23T21:35:09.834Z,9.30
2019-02-23T21:37:44.533Z,9.00
2019-02-23T21:40:13.602Z,9.03
2019-02-23T21:42:42.336Z,8.43
2019-02-23T21:45:12.600Z,9.37
2019-02-23T21:47:41.775Z,11.70
2019-02-23T21:50:13.140Z,9.77
2019-02-23T21:52:41.942Z,8.00
2019-02-23T21:55:11.973Z,7.33
2019-02-23T21:57:42.210Z,7.33
2019-02-23T22:00:17.585Z,8.20
2019-02-23T22:02:46.312Z,7.40
2019-02-23T22:05:15.088Z,6.87
2019-02-23T22:07:44.761Z,7.43
2019-02-23T22:10:13.468Z,6.80
2019-02-23T22:12:42.190Z,6.33
2019-02-23T22:15:11.086Z,6.27
2019-02-23T22:17:39.810Z,6.57
2019-02-23T22:20:08.645Z,5.60
2019-02-23T22:22:37.421Z,6.00
2019-02-23T22:25:06.141Z,5.77
2019-02-23T22:27:34.858Z,5.60
2019-02-23T22:30:03.870Z,5.63
2019-02-23T22:32:32.605Z,6.93
2019-02-23T22:35:01.341Z,5.73
2019-02-23T22:37:30.188Z,6.87
2019-02-23T22:39:58.902Z,6.20
2019-02-23T22:42:27.668Z,5.67
2019-02-23T22:44:57.033Z,5.33
2019-02-23T22:47:28.105Z,6.10
2019-02-23T22:49:56.937Z,5.70
2019-02-23T22:52:25.665Z,5.43
2019-02-23T22:54:54.445Z,6.20
2019-02-23T22:57:24.645Z,6.10
2019-02-23T22:59:53.384Z,11.90
2019-02-23T23:02:22.121Z,10.87
2019-02-23T23:04:52.151Z,11.20
2019-02-23T23:07:20.908Z,12.67
2019-02-23T23:09:49.649Z,11.33
2019-02-23T23:12:18.837Z,10.87
2019-02-23T23:14:47.620Z,10.17
2019-02-23T23:17:16.336Z,10.73
2019-02-23T23:19:46.229Z,10.70
2019-02-23T23:22:14.937Z,12.67
2019-02-23T23:24:45.865Z,22.80
2019-02-23T23:27:14.656Z,16.97
2019-02-23T23:29:46.939Z,17.60
2019-02-23T23:32:15.339Z,13.77
2019-02-23T23:34:47.301Z,14.90
2019-02-23T23:37:16.019Z,14.37
2019-02-23T23:39:46.200Z,15.13
2019-02-23T23:42:17.543Z,16.53
2019-02-23T23:44:45.569Z,15.83
2019-02-23T23:47:14.304Z,15.83
2019-02-23T23:49:44.815Z,18.20
2019-02-23T23:52:15.894Z,19.37
2019-02-23T23:54:46.204Z,16.03
2019-02-23T23:57:15.632Z,19.50
2019-02-23T23:59:44.399Z,17.03
